sensor_id;sensor_type;location;lat;lon;timestamp;pressure;altitude;pressure_sealevel;temperature
7830;BMP180;3960;51.86894000;5.39848000;2023-04-26T00:01:05;101979.03;;;3.28
7830;BMP180;3960;51.86894000;5.39848000;2023-04-26T00:03:31;101987.06;;;3.28
7830;BMP180;3960;51.86894000;5.39848000;2023-04-26T00:05:56;101974.34;;;3.25
7830;BMP180;3960;51.86894000;5.39848000;2023-04-26T00:08:21;101971.88;;;3.20
7830;BMP180;3960;51.86894000;5.39848000;2023-04-26T00:10:47;101979.22;;;3.23
7830;BMP180;3960;51.86894000;5.39848000;2023-04-26T00:13:12;101982.22;;;3.22
7830;BMP180;3960;51.86894000;5.39848000;2023-04-26T00:15:37;101984.16;;;3.21
7830;BMP180;3960;51.86894000;5.39848000;2023-04-26T00:18:02;101963.31;;;3.06
7830;BMP180;3960;51.86894000;5.39848000;2023-04-26T00:20:28;101976.63;;;3.15
7830;BMP180;3960;51.86894000;5.39848000;2023-04-26T00:22:54;101977.78;;;3.05
7830;BMP180;3960;51.86894000;5.39848000;2023-04-26T00:25:19;101976.06;;;3.09
7830;BMP180;3960;51.86894000;5.39848000;2023-04-26T00:27:45;101984.09;;;3.09
7830;BMP180;3960;51.86894000;5.39848000;2023-04-26T00:30:10;101980.13;;;3.07
7830;BMP180;3960;51.86894000;5.39848000;2023-04-26T00:32:36;101980.47;;;3.05
7830;BMP180;3960;51.86894000;5.39848000;2023-04-26T00:35:04;101978.13;;;3.04
7830;BMP180;3960;51.86894000;5.39848000;2023-04-26T00:37:30;101980.00;;;3.03
7830;BMP180;3960;51.86894000;5.39848000;2023-04-26T00:39:55;101980.34;;;3.02
7830;BMP180;3960;51.86894000;5.39848000;2023-04-26T00:42:21;101981.31;;;2.97
7830;BMP180;3960;51.86894000;5.39848000;2023-04-26T00:44:46;101980.22;;;2.98
7830;BMP180;3960;51.86894000;5.39848000;2023-04-26T00:47:13;101978.63;;;2.97
7830;BMP180;3960;51.86894000;5.39848000;2023-04-26T00:49:39;101976.28;;;2.96
7830;BMP180;3960;51.86894000;5.39848000;2023-04-26T00:52:04;101976.16;;;2.92
7830;BMP180;3960;51.86894000;5.39848000;2023-04-26T00:54:30;101977.59;;;2.90
7830;BMP180;3960;51.86894000;5.39848000;2023-04-26T00:56:56;101976.69;;;2.86
7830;BMP180;3960;51.86894000;5.39848000;2023-04-26T00:59:22;101973.53;;;2.84
7830;BMP180;3960;51.86894000;5.39848000;2023-04-26T01:01:47;101965.59;;;2.76
7830;BMP180;3960;51.86894000;5.39848000;2023-04-26T01:04:13;101970.75;;;2.81
7830;BMP180;3960;51.86894000;5.39848000;2023-04-26T01:06:39;101974.66;;;2.83
7830;BMP180;3960;51.86894000;5.39848000;2023-04-26T01:09:05;101974.31;;;2.85
7830;BMP180;3960;51.86894000;5.39848000;2023-04-26T01:11:34;101971.63;;;2.85
7830;BMP180;3960;51.86894000;5.39848000;2023-04-26T01:14:00;101978.56;;;2.86
7830;BMP180;3960;51.86894000;5.39848000;2023-04-26T01:16:26;101967.59;;;2.79
7830;BMP180;3960;51.86894000;5.39848000;2023-04-26T01:18:52;101983.16;;;2.85
7830;BMP180;3960;51.86894000;5.39848000;2023-04-26T01:21:21;101975.19;;;2.77
7830;BMP180;3960;51.86894000;5.39848000;2023-04-26T01:23:48;101978.63;;;2.77
7830;BMP180;3960;51.86894000;5.39848000;2023-04-26T01:26:14;101972.22;;;2.70
7830;BMP180;3960;51.86894000;5.39848000;2023-04-26T01:28:39;101979.78;;;2.68
7830;BMP180;3960;51.86894000;5.39848000;2023-04-26T01:31:05;101993.31;;;2.71
7830;BMP180;3960;51.86894000;5.39848000;2023-04-26T01:33:30;101985.91;;;2.68
7830;BMP180;3960;51.86894000;5.39848000;2023-04-26T01:35:55;101981.81;;;2.71
7830;BMP180;3960;51.86894000;5.39848000;2023-04-26T01:38:21;101988.72;;;2.72
7830;BMP180;3960;51.86894000;5.39848000;2023-04-26T01:40:46;101985.28;;;2.71
7830;BMP180;3960;51.86894000;5.39848000;2023-04-26T01:43:11;101980.13;;;2.66
7830;BMP180;3960;51.86894000;5.39848000;2023-04-26T01:45:36;101992.19;;;2.72
7830;BMP180;3960;51.86894000;5.39848000;2023-04-26T01:48:02;101984.03;;;2.69
7830;BMP180;3960;51.86894000;5.39848000;2023-04-26T01:50:27;101976.66;;;2.66
7830;BMP180;3960;51.86894000;5.39848000;2023-04-26T01:52:52;101971.28;;;2.66
7830;BMP180;3960;51.86894000;5.39848000;2023-04-26T01:55:18;101972.72;;;2.63
7830;BMP180;3960;51.86894000;5.39848000;2023-04-26T01:57:43;101970.25;;;2.58
7830;BMP180;3960;51.86894000;5.39848000;2023-04-26T02:00:09;101972.44;;;2.56
7830;BMP180;3960;51.86894000;5.39848000;2023-04-26T02:02:34;101969.63;;;2.53
7830;BMP180;3960;51.86894000;5.39848000;2023-04-26T02:04:59;101979.56;;;2.52
7830;BMP180;3960;51.86894000;5.39848000;2023-04-26T02:07:24;101983.47;;;2.55
7830;BMP180;3960;51.86894000;5.39848000;2023-04-26T02:09:50;101977.38;;;2.46
7830;BMP180;3960;51.86894000;5.39848000;2023-04-26T02:12:15;101983.34;;;2.51
7830;BMP180;3960;51.86894000;5.39848000;2023-04-26T02:14:41;101983.97;;;2.48
7830;BMP180;3960;51.86894000;5.39848000;2023-04-26T02:17:06;101978.47;;;2.45
7830;BMP180;3960;51.86894000;5.39848000;2023-04-26T02:19:33;101986.84;;;2.43
7830;BMP180;3960;51.86894000;5.39848000;2023-04-26T02:21:58;101977.56;;;2.41
7830;BMP180;3960;51.86894000;5.39848000;2023-04-26T02:24:24;101981.19;;;2.36
7830;BMP180;3960;51.86894000;5.39848000;2023-04-26T02:26:50;101981.88;;;2.33
7830;BMP180;3960;51.86894000;5.39848000;2023-04-26T02:29:16;101975.72;;;2.33
7830;BMP180;3960;51.86894000;5.39848000;2023-04-26T02:31:41;101983.72;;;2.33
7830;BMP180;3960;51.86894000;5.39848000;2023-04-26T02:34:07;101972.47;;;2.27
7830;BMP180;3960;51.86894000;5.39848000;2023-04-26T02:36:32;101981.72;;;2.30
7830;BMP180;3960;51.86894000;5.39848000;2023-04-26T02:38:58;101982.81;;;2.29
7830;BMP180;3960;51.86894000;5.39848000;2023-04-26T02:41:24;101977.66;;;2.24
7830;BMP180;3960;51.86894000;5.39848000;2023-04-26T02:43:49;101975.00;;;2.24
7830;BMP180;3960;51.86894000;5.39848000;2023-04-26T02:46:15;101981.28;;;2.19
7830;BMP180;3960;51.86894000;5.39848000;2023-04-26T02:48:41;101979.38;;;2.20
7830;BMP180;3960;51.86894000;5.39848000;2023-04-26T02:51:06;101970.47;;;2.16
7830;BMP180;3960;51.86894000;5.39848000;2023-04-26T02:53:31;101975.81;;;2.16
7830;BMP180;3960;51.86894000;5.39848000;2023-04-26T02:55:57;101971.25;;;2.08
7830;BMP180;3960;51.86894000;5.39848000;2023-04-26T02:58:24;101957.28;;;2.03
7830;BMP180;3960;51.86894000;5.39848000;2023-04-26T03:00:50;101965.16;;;2.08
7830;BMP180;3960;51.86894000;5.39848000;2023-04-26T03:03:15;101966.25;;;2.07
7830;BMP180;3960;51.86894000;5.39848000;2023-04-26T03:05:40;101962.63;;;2.03
7830;BMP180;3960;51.86894000;5.39848000;2023-04-26T03:08:06;101954.94;;;2.01
7830;BMP180;3960;51.86894000;5.39848000;2023-04-26T03:10:31;101966.44;;;2.02
7830;BMP180;3960;51.86894000;5.39848000;2023-04-26T03:12:56;101964.53;;;2.02
7830;BMP180;3960;51.86894000;5.39848000;2023-04-26T03:15:22;101965.78;;;2.05
7830;BMP180;3960;51.86894000;5.39848000;2023-04-26T03:17:47;101969.25;;;2.05
7830;BMP180;3960;51.86894000;5.39848000;2023-04-26T03:20:13;101969.25;;;2.05
7830;BMP180;3960;51.86894000;5.39848000;2023-04-26T03:22:38;101965.78;;;2.05
7830;BMP180;3960;51.86894000;5.39848000;2023-04-26T03:25:04;101961.72;;;1.99
7830;BMP180;3960;51.86894000;5.39848000;2023-04-26T03:27:29;101952.63;;;1.91
7830;BMP180;3960;51.86894000;5.39848000;2023-04-26T03:29:55;101971.94;;;1.97
7830;BMP180;3960;51.86894000;5.39848000;2023-04-26T03:32:20;101963.00;;;1.93
7830;BMP180;3960;51.86894000;5.39848000;2023-04-26T03:34:45;101958.59;;;1.88
7830;BMP180;3960;51.86894000;5.39848000;2023-04-26T03:37:12;101957.03;;;1.87
7830;BMP180;3960;51.86894000;5.39848000;2023-04-26T03:39:38;101956.44;;;1.82
7830;BMP180;3960;51.86894000;5.39848000;2023-04-26T03:42:03;101956.09;;;1.83
7830;BMP180;3960;51.86894000;5.39848000;2023-04-26T03:44:29;101945.31;;;1.71
7830;BMP180;3960;51.86894000;5.39848000;2023-04-26T03:46:54;101950.94;;;1.78
7830;BMP180;3960;51.86894000;5.39848000;2023-04-26T03:49:20;101956.13;;;1.75
7830;BMP180;3960;51.86894000;5.39848000;2023-04-26T03:51:46;101952.66;;;1.74
7830;BMP180;3960;51.86894000;5.39848000;2023-04-26T03:54:11;101953.47;;;1.75
7830;BMP180;3960;51.86894000;5.39848000;2023-04-26T03:56:36;101951.09;;;1.73
7830;BMP180;3960;51.86894000;5.39848000;2023-04-26T03:59:02;101938.88;;;1.64
7830;BMP180;3960;51.86894000;5.39848000;2023-04-26T04:01:28;101952.53;;;1.62
7830;BMP180;3960;51.86894000;5.39848000;2023-04-26T04:03:53;101955.84;;;1.68
7830;BMP180;3960;51.86894000;5.39848000;2023-04-26T04:06:18;101948.63;;;1.60
7830;BMP180;3960;51.86894000;5.39848000;2023-04-26T04:08:43;101953.78;;;1.65
7830;BMP180;3960;51.86894000;5.39848000;2023-04-26T04:11:09;101954.25;;;1.67
7830;BMP180;3960;51.86894000;5.39848000;2023-04-26T04:13:34;101954.75;;;1.69
7830;BMP180;3960;51.86894000;5.39848000;2023-04-26T04:15:59;101948.28;;;1.70
7830;BMP180;3960;51.86894000;5.39848000;2023-04-26T04:18:25;101952.50;;;1.71
7830;BMP180;3960;51.86894000;5.39848000;2023-04-26T04:20:50;101942.47;;;1.68
7830;BMP180;3960;51.86894000;5.39848000;2023-04-26T04:23:16;101953.75;;;1.73
7830;BMP180;3960;51.86894000;5.39848000;2023-04-26T04:25:41;101953.91;;;1.77
7830;BMP180;3960;51.86894000;5.39848000;2023-04-26T04:28:08;101937.91;;;1.68
7830;BMP180;3960;51.86894000;5.39848000;2023-04-26T04:30:33;101962.53;;;1.82
7830;BMP180;3960;51.86894000;5.39848000;2023-04-26T04:32:58;101955.00;;;1.84
7830;BMP180;3960;51.86894000;5.39848000;2023-04-26T04:35:24;101961.75;;;1.90
7830;BMP180;3960;51.86894000;5.39848000;2023-04-26T04:37:53;101956.41;;;1.90
7830;BMP180;3960;51.86894000;5.39848000;2023-04-26T04:40:20;101962.22;;;1.92
7830;BMP180;3960;51.86894000;5.39848000;2023-04-26T04:42:46;101965.66;;;1.93
7830;BMP180;3960;51.86894000;5.39848000;2023-04-26T04:45:11;101959.22;;;1.94
7830;BMP180;3960;51.86894000;5.39848000;2023-04-26T04:47:36;101962.66;;;1.94
7830;BMP180;3960;51.86894000;5.39848000;2023-04-26T04:50:05;101962.03;;;1.97
7830;BMP180;3960;51.86894000;5.39848000;2023-04-26T04:52:31;101962.19;;;2.01
7830;BMP180;3960;51.86894000;5.39848000;2023-04-26T04:54:58;101965.63;;;2.01
7830;BMP180;3960;51.86894000;5.39848000;2023-04-26T04:57:23;101964.53;;;2.02
7830;BMP180;3960;51.86894000;5.39848000;2023-04-26T04:59:48;101969.34;;;2.17
7830;BMP180;3960;51.86894000;5.39848000;2023-04-26T05:02:13;101969.81;;;2.19
7830;BMP180;3960;51.86894000;5.39848000;2023-04-26T05:04:39;101975.72;;;2.33
7830;BMP180;3960;51.86894000;5.39848000;2023-04-26T05:07:04;101974.91;;;2.41
7830;BMP180;3960;51.86894000;5.39848000;2023-04-26T05:09:30;101977.22;;;2.51
7830;BMP180;3960;51.86894000;5.39848000;2023-04-26T05:11:56;101978.75;;;2.60
7830;BMP180;3960;51.86894000;5.39848000;2023-04-26T05:14:21;101981.69;;;2.67
7830;BMP180;3960;51.86894000;5.39848000;2023-04-26T05:16:46;101989.53;;;2.72
7830;BMP180;3960;51.86894000;5.39848000;2023-04-26T05:19:12;101981.31;;;2.77
7830;BMP180;3960;51.86894000;5.39848000;2023-04-26T05:21:38;101994.28;;;2.87
7830;BMP180;3960;51.86894000;5.39848000;2023-04-26T05:24:03;101995.81;;;2.96
7830;BMP180;3960;51.86894000;5.39848000;2023-04-26T05:26:28;101994.66;;;3.06
7830;BMP180;3960;51.86894000;5.39848000;2023-04-26T05:28:54;101993.47;;;3.15
7830;BMP180;3960;51.86894000;5.39848000;2023-04-26T05:31:19;102001.22;;;3.29
7830;BMP180;3960;51.86894000;5.39848000;2023-04-26T05:33:45;101994.19;;;3.45
7830;BMP180;3960;51.86894000;5.39848000;2023-04-26T05:36:11;101992.44;;;3.60
7830;BMP180;3960;51.86894000;5.39848000;2023-04-26T05:38:36;101999.41;;;3.73
7830;BMP180;3960;51.86894000;5.39848000;2023-04-26T05:41:02;101995.88;;;3.81
7830;BMP180;3960;51.86894000;5.39848000;2023-04-26T05:43:27;102001.81;;;3.87
7830;BMP180;3960;51.86894000;5.39848000;2023-04-26T05:45:54;102007.41;;;3.94
7830;BMP180;3960;51.86894000;5.39848000;2023-04-26T05:48:20;102003.72;;;3.98
7830;BMP180;3960;51.86894000;5.39848000;2023-04-26T05:50:47;102010.34;;;4.13
7830;BMP180;3960;51.86894000;5.39848000;2023-04-26T05:53:12;101995.06;;;4.25
7830;BMP180;3960;51.86894000;5.39848000;2023-04-26T05:55:39;102008.81;;;4.47
7830;BMP180;3960;51.86894000;5.39848000;2023-04-26T05:58:04;101993.06;;;4.82
7830;BMP180;3960;51.86894000;5.39848000;2023-04-26T06:00:30;101998.16;;;4.99
7830;BMP180;3960;51.86894000;5.39848000;2023-04-26T06:02:56;101993.03;;;5.33
7830;BMP180;3960;51.86894000;5.39848000;2023-04-26T06:05:22;102003.97;;;5.79
7830;BMP180;3960;51.86894000;5.39848000;2023-04-26T06:07:47;102004.53;;;6.15
7830;BMP180;3960;51.86894000;5.39848000;2023-04-26T06:10:12;101985.88;;;6.38
7830;BMP180;3960;51.86894000;5.39848000;2023-04-26T06:12:38;102008.81;;;6.81
7830;BMP180;3960;51.86894000;5.39848000;2023-04-26T06:15:03;102004.88;;;6.94
7830;BMP180;3960;51.86894000;5.39848000;2023-04-26T06:17:29;102015.97;;;7.08
7830;BMP180;3960;51.86894000;5.39848000;2023-04-26T06:19:54;102003.47;;;7.00
7830;BMP180;3960;51.86894000;5.39848000;2023-04-26T06:22:20;102007.59;;;7.13
7830;BMP180;3960;51.86894000;5.39848000;2023-04-26T06:24:45;102017.50;;;7.43
7830;BMP180;3960;51.86894000;5.39848000;2023-04-26T06:27:10;102022.63;;;7.90
7830;BMP180;3960;51.86894000;5.39848000;2023-04-26T06:29:36;102008.00;;;8.32
7830;BMP180;3960;51.86894000;5.39848000;2023-04-26T06:32:01;102019.31;;;8.63
7830;BMP180;3960;51.86894000;5.39848000;2023-04-26T06:34:26;102016.19;;;8.87
7830;BMP180;3960;51.86894000;5.39848000;2023-04-26T06:36:52;102018.06;;;9.09
7830;BMP180;3960;51.86894000;5.39848000;2023-04-26T06:39:17;102032.88;;;9.18
7830;BMP180;3960;51.86894000;5.39848000;2023-04-26T06:41:43;102026.31;;;9.19
7830;BMP180;3960;51.86894000;5.39848000;2023-04-26T06:44:08;102014.53;;;9.05
7830;BMP180;3960;51.86894000;5.39848000;2023-04-26T06:46:33;102037.09;;;9.16
7830;BMP180;3960;51.86894000;5.39848000;2023-04-26T06:49:00;102033.00;;;9.29
7830;BMP180;3960;51.86894000;5.39848000;2023-04-26T06:51:25;102031.69;;;9.45
7830;BMP180;3960;51.86894000;5.39848000;2023-04-26T06:53:51;102029.22;;;9.66
7830;BMP180;3960;51.86894000;5.39848000;2023-04-26T06:56:16;102042.97;;;9.83
7830;BMP180;3960;51.86894000;5.39848000;2023-04-26T06:58:57;102029.56;;;9.94
7830;BMP180;3960;51.86894000;5.39848000;2023-04-26T07:01:24;102035.06;;;10.01
7830;BMP180;3960;51.86894000;5.39848000;2023-04-26T07:03:50;102021.78;;;9.92
7830;BMP180;3960;51.86894000;5.39848000;2023-04-26T07:06:15;102031.81;;;9.88
7830;BMP180;3960;51.86894000;5.39848000;2023-04-26T07:08:40;102039.50;;;9.86
7830;BMP180;3960;51.86894000;5.39848000;2023-04-26T07:11:09;102039.13;;;9.88
7830;BMP180;3960;51.86894000;5.39848000;2023-04-26T07:13:35;102030.28;;;9.91
7830;BMP180;3960;51.86894000;5.39848000;2023-04-26T07:16:00;102028.13;;;10.03
7830;BMP180;3960;51.86894000;5.39848000;2023-04-26T07:18:25;102024.78;;;10.17
7830;BMP180;3960;51.86894000;5.39848000;2023-04-26T07:20:51;102030.25;;;10.23
7830;BMP180;3960;51.86894000;5.39848000;2023-04-26T07:23:16;102022.81;;;10.14
7830;BMP180;3960;51.86894000;5.39848000;2023-04-26T07:25:41;102033.34;;;10.22
7830;BMP180;3960;51.86894000;5.39848000;2023-04-26T07:28:06;102025.56;;;10.17
7830;BMP180;3960;51.86894000;5.39848000;2023-04-26T07:30:32;102025.16;;;10.15
7830;BMP180;3960;51.86894000;5.39848000;2023-04-26T07:32:57;102031.72;;;10.14
7830;BMP180;3960;51.86894000;5.39848000;2023-04-26T07:35:23;102028.28;;;10.17
7830;BMP180;3960;51.86894000;5.39848000;2023-04-26T07:37:48;102012.41;;;10.19
7830;BMP180;3960;51.86894000;5.39848000;2023-04-26T07:40:13;102026.25;;;10.50
7830;BMP180;3960;51.86894000;5.39848000;2023-04-26T07:42:39;102022.00;;;10.53
7830;BMP180;3960;51.86894000;5.39848000;2023-04-26T07:45:05;102026.63;;;10.49
7830;BMP180;3960;51.86894000;5.39848000;2023-04-26T07:47:30;102028.56;;;10.52
7830;BMP180;3960;51.86894000;5.39848000;2023-04-26T07:49:56;102030.81;;;10.43
7830;BMP180;3960;51.86894000;5.39848000;2023-04-26T07:52:21;102034.19;;;10.29
7830;BMP180;3960;51.86894000;5.39848000;2023-04-26T07:54:46;102030.66;;;10.25
7830;BMP180;3960;51.86894000;5.39848000;2023-04-26T07:57:12;102033.38;;;10.25
7830;BMP180;3960;51.86894000;5.39848000;2023-04-26T07:59:37;102037.50;;;10.56
7830;BMP180;3960;51.86894000;5.39848000;2023-04-26T08:02:02;102036.44;;;10.71
7830;BMP180;3960;51.86894000;5.39848000;2023-04-26T08:04:32;102043.88;;;10.81
7830;BMP180;3960;51.86894000;5.39848000;2023-04-26T08:06:58;102043.97;;;10.91
7830;BMP180;3960;51.86894000;5.39848000;2023-04-26T08:09:23;102042.94;;;11.16
7830;BMP180;3960;51.86894000;5.39848000;2023-04-26T08:11:48;102051.97;;;11.31
7830;BMP180;3960;51.86894000;5.39848000;2023-04-26T08:14:14;102045.94;;;11.65
7830;BMP180;3960;51.86894000;5.39848000;2023-04-26T08:16:39;102057.72;;;12.21
7830;BMP180;3960;51.86894000;5.39848000;2023-04-26T08:19:05;102045.72;;;12.57
7830;BMP180;3960;51.86894000;5.39848000;2023-04-26T08:21:31;102051.91;;;13.10
7830;BMP180;3960;51.86894000;5.39848000;2023-04-26T08:23:56;102056.94;;;13.14
7830;BMP180;3960;51.86894000;5.39848000;2023-04-26T08:26:22;102055.78;;;12.98
7830;BMP180;3960;51.86894000;5.39848000;2023-04-26T08:28:47;102037.56;;;12.71
7830;BMP180;3960;51.86894000;5.39848000;2023-04-26T08:31:13;102046.88;;;12.87
7830;BMP180;3960;51.86894000;5.39848000;2023-04-26T08:33:38;102053.34;;;13.52
7830;BMP180;3960;51.86894000;5.39848000;2023-04-26T08:36:04;102055.34;;;14.20
7830;BMP180;3960;51.86894000;5.39848000;2023-04-26T08:38:29;102044.66;;;14.86
7830;BMP180;3960;51.86894000;5.39848000;2023-04-26T08:40:57;102044.94;;;14.55
7830;BMP180;3960;51.86894000;5.39848000;2023-04-26T08:43:27;102045.25;;;14.17
7830;BMP180;3960;51.86894000;5.39848000;2023-04-26T08:45:52;102043.97;;;14.28
7830;BMP180;3960;51.86894000;5.39848000;2023-04-26T08:48:18;102041.47;;;14.51
7830;BMP180;3960;51.86894000;5.39848000;2023-04-26T08:50:44;102043.22;;;15.15
7830;BMP180;3960;51.86894000;5.39848000;2023-04-26T08:53:13;102042.91;;;15.76
7830;BMP180;3960;51.86894000;5.39848000;2023-04-26T08:55:40;102048.41;;;16.29
7830;BMP180;3960;51.86894000;5.39848000;2023-04-26T08:58:06;102042.53;;;16.30
7830;BMP180;3960;51.86894000;5.39848000;2023-04-26T09:00:32;102039.22;;;15.86
7830;BMP180;3960;51.86894000;5.39848000;2023-04-26T09:02:58;102035.28;;;15.28
7830;BMP180;3960;51.86894000;5.39848000;2023-04-26T09:05:23;102028.88;;;14.67
7830;BMP180;3960;51.86894000;5.39848000;2023-04-26T09:07:55;102024.22;;;14.17
7830;BMP180;3960;51.86894000;5.39848000;2023-04-26T09:10:21;102036.09;;;13.80
7830;BMP180;3960;51.86894000;5.39848000;2023-04-26T09:12:51;102023.75;;;13.58
7830;BMP180;3960;51.86894000;5.39848000;2023-04-26T09:15:16;102026.59;;;13.30
7830;BMP180;3960;51.86894000;5.39848000;2023-04-26T09:17:42;102025.13;;;13.01
7830;BMP180;3960;51.86894000;5.39848000;2023-04-26T09:20:29;102022.41;;;12.70
7830;BMP180;3960;51.86894000;5.39848000;2023-04-26T09:23:08;102020.09;;;12.61
7830;BMP180;3960;51.86894000;5.39848000;2023-04-26T09:25:34;102022.41;;;12.52
7830;BMP180;3960;51.86894000;5.39848000;2023-04-26T09:28:00;102013.88;;;12.47
7830;BMP180;3960;51.86894000;5.39848000;2023-04-26T09:30:26;102013.47;;;12.31
7830;BMP180;3960;51.86894000;5.39848000;2023-04-26T09:33:00;102020.88;;;12.38
7830;BMP180;3960;51.86894000;5.39848000;2023-04-26T09:35:32;102027.47;;;12.30
7830;BMP180;3960;51.86894000;5.39848000;2023-04-26T09:38:23;102025.13;;;12.42
7830;BMP180;3960;51.86894000;5.39848000;2023-04-26T09:40:49;102027.47;;;12.64
7830;BMP180;3960;51.86894000;5.39848000;2023-04-26T09:43:16;102027.06;;;12.80
7830;BMP180;3960;51.86894000;5.39848000;2023-04-26T09:45:52;102037.94;;;13.01
7830;BMP180;3960;51.86894000;5.39848000;2023-04-26T09:48:22;102036.41;;;12.89
7830;BMP180;3960;51.86894000;5.39848000;2023-04-26T09:50:51;102021.25;;;12.74
7830;BMP180;3960;51.86894000;5.39848000;2023-04-26T09:55:52;102025.13;;;12.52
7830;BMP180;3960;51.86894000;5.39848000;2023-04-26T09:58:18;102026.31;;;12.44
7830;BMP180;3960;51.86894000;5.39848000;2023-04-26T10:00:45;102020.88;;;12.38
7830;BMP180;3960;51.86894000;5.39848000;2023-04-26T10:03:14;102020.88;;;12.24
7830;BMP180;3960;51.86894000;5.39848000;2023-04-26T10:05:40;102019.28;;;12.12
7830;BMP180;3960;51.86894000;5.39848000;2023-04-26T10:08:06;102017.69;;;11.94
7830;BMP180;3960;51.86894000;5.39848000;2023-04-26T10:10:32;102015.72;;;11.77
7830;BMP180;3960;51.86894000;5.39848000;2023-04-26T10:12:57;102016.84;;;11.62
7830;BMP180;3960;51.86894000;5.39848000;2023-04-26T10:15:26;102020.66;;;11.47
7830;BMP180;3960;51.86894000;5.39848000;2023-04-26T10:17:51;102017.91;;;11.40
7830;BMP180;3960;51.86894000;5.39848000;2023-04-26T10:20:17;102021.00;;;11.42
7830;BMP180;3960;51.86894000;5.39848000;2023-04-26T10:22:50;102023.31;;;11.37
7830;BMP180;3960;51.86894000;5.39848000;2023-04-26T10:25:17;102022.50;;;11.33
7830;BMP180;3960;51.86894000;5.39848000;2023-04-26T10:30:09;102010.84;;;11.25
7830;BMP180;3960;51.86894000;5.39848000;2023-04-26T10:35:17;102021.66;;;11.18
7830;BMP180;3960;51.86894000;5.39848000;2023-04-26T10:40:31;102018.47;;;11.02
7830;BMP180;3960;51.86894000;5.39848000;2023-04-26T10:45:34;102013.53;;;11.18
7830;BMP180;3960;51.86894000;5.39848000;2023-04-26T10:48:13;102018.97;;;11.22
7830;BMP180;3960;51.86894000;5.39848000;2023-04-26T10:53:23;102015.13;;;11.26
7830;BMP180;3960;51.86894000;5.39848000;2023-04-26T10:55:48;102017.88;;;11.33
7830;BMP180;3960;51.86894000;5.39848000;2023-04-26T10:58:33;102022.94;;;11.42
7830;BMP180;3960;51.86894000;5.39848000;2023-04-26T11:01:14;102018.34;;;11.53
7830;BMP180;3960;51.86894000;5.39848000;2023-04-26T11:04:00;102018.78;;;11.58
7830;BMP180;3960;51.86894000;5.39848000;2023-04-26T11:06:48;102010.22;;;11.56
7830;BMP180;3960;51.86894000;5.39848000;2023-04-26T11:09:36;102007.13;;;11.61
7830;BMP180;3960;51.86894000;5.39848000;2023-04-26T11:12:09;102010.25;;;11.66
7830;BMP180;3960;51.86894000;5.39848000;2023-04-26T11:14:35;102016.16;;;11.82
7830;BMP180;3960;51.86894000;5.39848000;2023-04-26T11:17:05;102016.94;;;11.93
7830;BMP180;3960;51.86894000;5.39848000;2023-04-26T11:19:31;102013.44;;;12.00
7830;BMP180;3960;51.86894000;5.39848000;2023-04-26T11:21:58;102002.22;;;12.01
7830;BMP180;3960;51.86894000;5.39848000;2023-04-26T11:24:34;101994.09;;;12.12
7830;BMP180;3960;51.86894000;5.39848000;2023-04-26T11:27:06;101997.97;;;12.21
7830;BMP180;3960;51.86894000;5.39848000;2023-04-26T11:29:32;102005.34;;;12.24
7830;BMP180;3960;51.86894000;5.39848000;2023-04-26T11:31:57;102000.31;;;12.33
7830;BMP180;3960;51.86894000;5.39848000;2023-04-26T11:34:35;101982.44;;;12.36
7830;BMP180;3960;51.86894000;5.39848000;2023-04-26T11:37:02;101993.31;;;12.42
7830;BMP180;3960;51.86894000;5.39848000;2023-04-26T11:39:30;101988.63;;;12.46
7830;BMP180;3960;51.86894000;5.39848000;2023-04-26T11:42:09;101989.78;;;12.49
7830;BMP180;3960;51.86894000;5.39848000;2023-04-26T11:44:36;102003.78;;;12.68
7830;BMP180;3960;51.86894000;5.39848000;2023-04-26T11:47:03;102001.03;;;12.82
7830;BMP180;3960;51.86894000;5.39848000;2023-04-26T11:49:30;101989.38;;;12.96
7830;BMP180;3960;51.86894000;5.39848000;2023-04-26T11:51:56;102002.53;;;13.08
7830;BMP180;3960;51.86894000;5.39848000;2023-04-26T11:56:53;102000.09;;;13.44
7830;BMP180;3960;51.86894000;5.39848000;2023-04-26T11:59:25;101992.28;;;13.50
7830;BMP180;3960;51.86894000;5.39848000;2023-04-26T12:01:51;102004.34;;;13.52
7830;BMP180;3960;51.86894000;5.39848000;2023-04-26T12:04:17;102002.03;;;13.44
7830;BMP180;3960;51.86894000;5.39848000;2023-04-26T12:06:44;102005.94;;;13.43
7830;BMP180;3960;51.86894000;5.39848000;2023-04-26T12:09:10;101985.75;;;13.33
7830;BMP180;3960;51.86894000;5.39848000;2023-04-26T12:11:36;102000.06;;;13.55
7830;BMP180;3960;51.86894000;5.39848000;2023-04-26T12:14:02;101989.53;;;13.57
7830;BMP180;3960;51.86894000;5.39848000;2023-04-26T12:16:28;101999.22;;;13.65
7830;BMP180;3960;51.86894000;5.39848000;2023-04-26T12:18:54;101991.44;;;13.67
7830;BMP180;3960;51.86894000;5.39848000;2023-04-26T12:21:20;101996.88;;;13.67
7830;BMP180;3960;51.86894000;5.39848000;2023-04-26T12:23:46;101997.69;;;13.60
7830;BMP180;3960;51.86894000;5.39848000;2023-04-26T12:26:13;101988.75;;;13.60
7830;BMP180;3960;51.86894000;5.39848000;2023-04-26T12:28:38;101997.59;;;13.74
7830;BMP180;3960;51.86894000;5.39848000;2023-04-26T12:31:04;102001.47;;;13.77
7830;BMP180;3960;51.86894000;5.39848000;2023-04-26T12:33:30;101998.78;;;13.70
7830;BMP180;3960;51.86894000;5.39848000;2023-04-26T12:35:57;102002.34;;;13.60
7830;BMP180;3960;51.86894000;5.39848000;2023-04-26T12:38:24;101992.28;;;13.50
7830;BMP180;3960;51.86894000;5.39848000;2023-04-26T12:40:49;101997.28;;;13.65
7830;BMP180;3960;51.86894000;5.39848000;2023-04-26T12:43:15;101998.00;;;13.73
7830;BMP180;3960;51.86894000;5.39848000;2023-04-26T12:45:40;101992.97;;;13.71
7830;BMP180;3960;51.86894000;5.39848000;2023-04-26T12:48:06;101999.56;;;13.74
7830;BMP180;3960;51.86894000;5.39848000;2023-04-26T12:50:32;101988.56;;;13.91